createdAt,value
2023-03-14T00:00:56.932Z,46.16
2023-03-14T00:01:59.434Z,46.11
2023-03-14T00:03:05.559Z,46.47
2023-03-14T00:04:17.604Z,46.23
2023-03-14T00:05:21.367Z,46.19
2023-03-14T00:06:27.088Z,46.18
2023-03-14T00:07:29.296Z,46.45
2023-03-14T00:08:31.560Z,46.42
2023-03-14T00:09:43.443Z,46.34
2023-03-14T00:10:51.277Z,46.38
2023-03-14T00:11:54.451Z,46.28
2023-03-14T00:12:58.146Z,46.19
2023-03-14T00:14:03.676Z,46.02
2023-03-14T00:15:08.440Z,45.92
2023-03-14T00:16:12.798Z,46.05
2023-03-14T00:17:26.287Z,46.05
2023-03-14T00:18:31.232Z,46.14
2023-03-14T00:19:33.531Z,45.96
2023-03-14T00:20:39.415Z,45.95
2023-03-14T00:21:46.135Z,45.59
2023-03-14T00:22:48.363Z,45.65
2023-03-14T00:23:53.752Z,45.78
2023-03-14T00:25:12.127Z,45.81
2023-03-14T00:26:21.263Z,45.91
2023-03-14T00:27:27.178Z,45.51
2023-03-14T00:28:30.398Z,45.58
2023-03-14T00:29:35.678Z,45.41
2023-03-14T00:30:40.495Z,45.79
2023-03-14T00:31:47.539Z,45.56
2023-03-14T00:34:15.108Z,45.49
2023-03-14T00:35:21.345Z,45.65
2023-03-14T00:36:27.710Z,45.58
2023-03-14T00:37:32.555Z,45.41
2023-03-14T00:38:38.128Z,45.67
2023-03-14T00:39:42.196Z,45.59
2023-03-14T00:40:50.000Z,45.56
2023-03-14T00:41:56.592Z,45.46
2023-03-14T00:43:02.542Z,45.67
2023-03-14T00:44:07.515Z,45.36
2023-03-14T00:45:14.385Z,45.34
2023-03-14T00:46:23.115Z,45.47
2023-03-14T00:47:26.247Z,45.63
2023-03-14T00:49:46.062Z,45.75
2023-03-14T00:50:48.940Z,45.51
2023-03-14T00:51:53.052Z,45.71
2023-03-14T00:52:58.263Z,45.50
2023-03-14T00:54:03.731Z,45.27
2023-03-14T00:55:08.685Z,45.49
2023-03-14T00:56:16.880Z,45.38
2023-03-14T00:57:20.351Z,45.38
2023-03-14T00:58:28.422Z,45.72
2023-03-14T00:59:35.296Z,45.38
2023-03-14T01:00:43.026Z,45.12
2023-03-14T01:01:47.155Z,45.14
2023-03-14T01:02:49.770Z,45.31
2023-03-14T01:03:58.567Z,45.35
2023-03-14T01:05:01.079Z,45.21
2023-03-14T01:06:15.544Z,45.34
2023-03-14T01:08:27.984Z,45.41
2023-03-14T01:09:30.336Z,45.09
2023-03-14T01:10:32.919Z,45.18
2023-03-14T01:11:36.470Z,45.29
2023-03-14T01:12:38.492Z,45.26
2023-03-14T01:13:40.849Z,45.12
2023-03-14T01:14:42.920Z,45.07
2023-03-14T01:15:44.881Z,44.82
2023-03-14T01:16:46.869Z,45.12
2023-03-14T01:17:49.038Z,45.25
2023-03-14T01:18:52.785Z,45.00
2023-03-14T01:19:55.036Z,44.97
2023-03-14T01:20:57.815Z,45.12
2023-03-14T01:22:00.451Z,45.15
2023-03-14T01:23:02.510Z,44.98
2023-03-14T01:24:06.832Z,45.12
2023-03-14T01:25:14.575Z,45.09
2023-03-14T01:26:20.103Z,45.19
2023-03-14T01:27:22.409Z,44.75
2023-03-14T01:28:26.317Z,45.02
2023-03-14T01:29:29.365Z,45.96
2023-03-14T01:30:31.787Z,45.99
2023-03-14T01:31:34.136Z,46.10
2023-03-14T01:32:36.576Z,46.33
2023-03-14T01:33:39.306Z,46.28
2023-03-14T01:34:41.812Z,46.34
2023-03-14T01:35:44.512Z,46.29
2023-03-14T01:36:46.667Z,46.31
2023-03-14T01:37:49.795Z,46.43
2023-03-14T01:38:54.303Z,46.38
2023-03-14T01:39:57.136Z,46.46
2023-03-14T01:40:59.754Z,46.38
2023-03-14T01:42:03.586Z,46.42
2023-03-14T01:43:09.667Z,46.52
2023-03-14T01:44:12.493Z,46.40
2023-03-14T01:45:51.919Z,46.49
2023-03-14T01:46:54.978Z,46.52
2023-03-14T01:47:57.134Z,46.59
2023-03-14T01:50:32.019Z,46.59
2023-03-14T01:51:41.235Z,46.63
2023-03-14T01:52:48.040Z,46.76
2023-03-14T01:53:51.598Z,46.80
2023-03-14T01:56:14.707Z,46.77
2023-03-14T01:57:36.250Z,47.04
2023-03-14T01:58:40.659Z,47.05
2023-03-14T02:01:05.024Z,47.13
2023-03-14T02:02:10.444Z,47.18
2023-03-14T02:03:15.295Z,47.21
2023-03-14T02:04:18.498Z,47.19
2023-03-14T02:05:24.071Z,47.32
2023-03-14T02:06:32.015Z,47.24
2023-03-14T02:07:50.522Z,47.26
2023-03-14T02:08:55.318Z,47.34
2023-03-14T02:10:00.058Z,47.28
2023-03-14T02:11:05.605Z,47.35
2023-03-14T02:12:26.668Z,47.33
2023-03-14T02:13:34.372Z,47.37
2023-03-14T02:14:38.773Z,47.38
2023-03-14T02:17:02.609Z,47.48
2023-03-14T02:18:23.628Z,47.54
2023-03-14T02:19:49.244Z,47.62
2023-03-14T02:21:28.210Z,47.63
2023-03-14T02:22:30.943Z,47.58
2023-03-14T02:23:47.625Z,47.58
2023-03-14T02:24:53.939Z,47.58
2023-03-14T02:25:59.213Z,47.65
2023-03-14T02:27:08.162Z,47.70
2023-03-14T02:28:12.968Z,47.62
2023-03-14T02:29:18.142Z,47.63
2023-03-14T02:30:27.154Z,47.66
2023-03-14T02:31:29.709Z,47.66
2023-03-14T02:32:34.047Z,47.70
2023-03-14T02:33:38.129Z,47.74
2023-03-14T02:34:42.335Z,47.74
2023-03-14T02:35:57.419Z,47.77
2023-03-14T02:37:01.722Z,47.78
2023-03-14T02:39:42.555Z,47.91
2023-03-14T02:40:45.955Z,48.03
2023-03-14T02:41:48.135Z,47.99
2023-03-14T02:42:51.478Z,48.04
2023-03-14T02:43:53.817Z,48.00
2023-03-14T02:45:11.534Z,48.07
2023-03-14T02:47:30.970Z,48.25
2023-03-14T02:51:16.678Z,48.48
2023-03-14T02:52:20.584Z,48.59
2023-03-14T02:53:26.157Z,48.54
2023-03-14T02:54:30.455Z,48.64
2023-03-14T02:55:33.889Z,48.68
2023-03-14T02:56:37.778Z,48.76
2023-03-14T02:57:40.381Z,48.86
2023-03-14T02:58:42.534Z,48.87
2023-03-14T02:59:49.575Z,49.02
2023-03-14T03:00:54.055Z,48.90
2023-03-14T03:02:01.452Z,49.00
2023-03-14T03:03:04.118Z,49.02
2023-03-14T03:04:06.710Z,49.15
2023-03-14T03:05:09.255Z,49.25
2023-03-14T03:06:12.181Z,49.19
2023-03-14T03:07:14.442Z,49.29
2023-03-14T03:08:18.621Z,49.44
2023-03-14T03:09:21.116Z,49.45
2023-03-14T03:10:23.628Z,49.54
2023-03-14T03:11:26.522Z,49.41
2023-03-14T03:12:29.138Z,49.49
2023-03-14T03:13:31.188Z,49.73
2023-03-14T03:14:33.872Z,49.85
2023-03-14T03:15:40.207Z,49.82
2023-03-14T03:16:42.373Z,49.73
2023-03-14T03:17:45.244Z,49.77
2023-03-14T03:18:47.437Z,49.74
2023-03-14T03:19:49.588Z,49.91
2023-03-14T03:20:53.547Z,49.92
2023-03-14T03:21:55.675Z,49.96
2023-03-14T03:22:59.662Z,49.85
2023-03-14T03:24:01.887Z,49.83
2023-03-14T03:25:06.664Z,49.86
2023-03-14T03:26:10.321Z,49.92
2023-03-14T03:27:13.060Z,49.94
2023-03-14T03:28:15.333Z,49.88
2023-03-14T03:29:18.133Z,50.01
2023-03-14T03:30:21.663Z,50.09
2023-03-14T03:31:24.277Z,50.27
2023-03-14T03:32:27.600Z,50.04
2023-03-14T03:33:29.850Z,50.24
2023-03-14T03:34:32.030Z,50.30
2023-03-14T03:35:34.212Z,50.39
2023-03-14T03:36:36.656Z,50.28
2023-03-14T03:37:39.422Z,50.16
2023-03-14T03:38:42.053Z,49.93
2023-03-14T03:39:45.008Z,50.10
2023-03-14T03:40:48.290Z,50.09
2023-03-14T03:41:51.903Z,49.88
2023-03-14T03:42:54.924Z,50.19
2023-03-14T03:43:57.611Z,49.84
2023-03-14T03:45:01.543Z,50.13
2023-03-14T03:46:06.716Z,49.49
2023-03-14T03:47:09.571Z,49.84
2023-03-14T03:48:11.595Z,49.36
2023-03-14T03:49:14.785Z,49.59
2023-03-14T03:50:17.115Z,49.64
2023-03-14T03:51:19.406Z,49.79
2023-03-14T03:52:23.385Z,49.81
2023-03-14T03:53:33.121Z,49.89
2023-03-14T03:54:30.551Z,49.64
2023-03-14T03:55:33.977Z,49.71
2023-03-14T03:56:36.289Z,49.93
2023-03-14T03:57:38.529Z,49.93
2023-03-14T03:58:41.993Z,49.86
2023-03-14T03:59:44.242Z,50.01
2023-03-14T04:00:46.699Z,49.94
2023-03-14T04:01:50.356Z,49.83
2023-03-14T04:02:53.277Z,49.94
2023-03-14T04:03:55.734Z,49.79
2023-03-14T04:04:58.264Z,50.01
2023-03-14T04:06:06.039Z,49.73
2023-03-14T04:07:10.088Z,49.67
2023-03-14T04:08:12.574Z,49.78
2023-03-14T04:09:15.826Z,49.67
2023-03-14T04:10:22.637Z,49.86
2023-03-14T04:11:26.718Z,49.77
2023-03-14T04:12:33.790Z,49.89
2023-03-14T04:13:38.155Z,49.59
2023-03-14T04:14:40.227Z,49.42
2023-03-14T04:15:47.401Z,49.71
2023-03-14T04:16:57.673Z,49.71
2023-03-14T04:17:59.928Z,49.75
2023-03-14T04:19:03.220Z,49.73
2023-03-14T04:20:09.968Z,49.86
2023-03-14T04:21:12.270Z,49.71
2023-03-14T04:22:16.746Z,49.81
2023-03-14T04:23:24.906Z,49.81
2023-03-14T04:24:27.161Z,49.80
2023-03-14T04:25:31.316Z,49.82
2023-03-14T04:26:35.404Z,49.74
2023-03-14T04:27:37.851Z,49.76
2023-03-14T04:28:42.237Z,49.77
2023-03-14T04:29:45.585Z,49.81
2023-03-14T04:30:49.909Z,49.54
2023-03-14T04:31:54.039Z,49.62
2023-03-14T04:32:56.151Z,49.59
2023-03-14T04:34:00.415Z,49.63
2023-03-14T04:35:08.535Z,49.62
2023-03-14T04:36:11.750Z,49.66
2023-03-14T04:37:14.146Z,49.73
2023-03-14T04:38:18.059Z,49.70
2023-03-14T04:39:21.874Z,49.69
2023-03-14T04:40:26.523Z,49.65
2023-03-14T04:41:30.915Z,49.61
2023-03-14T04:42:34.788Z,49.62
2023-03-14T04:43:38.199Z,49.59
2023-03-14T04:44:46.389Z,49.55
2023-03-14T04:45:49.435Z,49.54
2023-03-14T04:46:52.753Z,49.55
2023-03-14T04:47:54.990Z,49.58
2023-03-14T04:48:58.751Z,49.50
2023-03-14T04:50:01.051Z,49.28
2023-03-14T04:51:05.669Z,49.36
2023-03-14T04:52:10.099Z,49.46
2023-03-14T04:53:14.035Z,49.29
2023-03-14T04:54:18.460Z,49.38
2023-03-14T04:55:24.382Z,49.24
2023-03-14T04:56:27.521Z,49.44
2023-03-14T04:57:29.576Z,49.36
2023-03-14T04:58:33.665Z,49.25
2023-03-14T04:59:36.674Z,49.20
2023-03-14T05:00:41.549Z,49.19
2023-03-14T05:01:45.521Z,49.17
2023-03-14T05:02:53.359Z,49.45
2023-03-14T05:04:06.304Z,49.28
2023-03-14T05:05:28.257Z,49.30
2023-03-14T05:06:49.698Z,49.16
2023-03-14T05:07:59.425Z,49.27
2023-03-14T05:09:05.185Z,49.16
2023-03-14T05:11:21.413Z,49.34
2023-03-14T05:12:37.933Z,49.42
2023-03-14T05:14:53.550Z,49.44
2023-03-14T05:17:16.815Z,49.48
2023-03-14T05:18:20.849Z,49.61
2023-03-14T05:19:36.047Z,49.50
2023-03-14T05:22:08.269Z,49.35
2023-03-14T05:23:29.131Z,49.42
2023-03-14T05:25:50.729Z,49.34
2023-03-14T05:26:55.992Z,49.25
2023-03-14T05:28:00.057Z,49.27
2023-03-14T05:29:20.621Z,49.23
2023-03-14T05:30:27.507Z,49.19
2023-03-14T05:32:42.568Z,49.03
2023-03-14T05:35:20.742Z,49.07
2023-03-14T05:36:30.951Z,48.96
2023-03-14T05:37:33.141Z,49.20
2023-03-14T05:38:54.787Z,49.10
2023-03-14T05:40:06.752Z,49.11
2023-03-14T05:42:32.443Z,49.06
2023-03-14T05:43:37.041Z,49.09
2023-03-14T05:44:42.294Z,48.87
2023-03-14T05:47:02.171Z,49.01
2023-03-14T05:48:05.661Z,49.04
2023-03-14T05:49:22.215Z,48.99
2023-03-14T05:50:36.576Z,48.57
2023-03-14T05:51:40.708Z,48.89
2023-03-14T05:52:48.404Z,48.60
2023-03-14T05:54:09.025Z,48.72
2023-03-14T05:55:15.990Z,48.78
2023-03-14T05:56:20.029Z,48.56
2023-03-14T05:58:34.186Z,48.45
2023-03-14T05:59:38.196Z,48.75
2023-03-14T06:01:04.226Z,48.69
2023-03-14T06:02:08.237Z,48.64
2023-03-14T06:03:12.591Z,48.35
2023-03-14T06:04:16.985Z,48.37
2023-03-14T06:05:20.680Z,48.49
2023-03-14T06:06:23.204Z,48.39
2023-03-14T06:07:25.922Z,48.50
2023-03-14T06:08:28.645Z,48.60
2023-03-14T06:09:30.832Z,48.57
2023-03-14T06:10:35.873Z,48.59
2023-03-14T06:11:39.213Z,48.68
2023-03-14T06:12:42.026Z,48.71
2023-03-14T06:13:44.083Z,48.70
2023-03-14T06:14:47.499Z,48.62
2023-03-14T06:15:51.580Z,48.57
2023-03-14T06:16:53.877Z,48.57
2023-03-14T06:17:57.525Z,48.59
2023-03-14T06:19:00.129Z,48.64
2023-03-14T06:20:05.489Z,48.66
2023-03-14T06:21:08.210Z,48.56
2023-03-14T06:22:11.933Z,48.60
2023-03-14T06:23:16.929Z,48.56
2023-03-14T06:24:19.143Z,48.55
2023-03-14T06:25:23.006Z,48.56
2023-03-14T06:26:27.257Z,48.60
2023-03-14T06:27:29.770Z,48.59
2023-03-14T06:28:33.827Z,48.70
2023-03-14T06:29:37.321Z,48.62
2023-03-14T06:30:40.889Z,48.60
2023-03-14T06:31:44.405Z,48.48
2023-03-14T06:32:48.181Z,48.73
2023-03-14T06:33:50.711Z,48.70
2023-03-14T06:34:54.147Z,48.81
2023-03-14T06:35:56.760Z,48.73
2023-03-14T06:36:59.429Z,48.81
2023-03-14T06:38:02.442Z,48.79
2023-03-14T06:39:06.109Z,48.85
2023-03-14T06:40:11.947Z,48.59
2023-03-14T06:41:16.373Z,48.66
2023-03-14T06:42:21.901Z,48.88
2023-03-14T06:43:25.944Z,48.65
2023-03-14T06:44:29.293Z,48.80
2023-03-14T06:45:31.521Z,48.64
2023-03-14T06:46:34.659Z,48.54
2023-03-14T06:47:37.998Z,48.69
2023-03-14T06:48:40.479Z,48.66
2023-03-14T06:49:43.150Z,48.80
2023-03-14T06:50:46.079Z,48.84
2023-03-14T06:51:50.533Z,48.71
2023-03-14T06:52:52.690Z,48.73
2023-03-14T06:53:56.766Z,48.75
2023-03-14T06:55:00.791Z,48.71
2023-03-14T06:56:04.480Z,48.65
2023-03-14T06:57:07.710Z,48.71
2023-03-14T06:58:10.258Z,48.68
2023-03-14T06:59:14.387Z,48.71
2023-03-14T07:00:18.835Z,48.57
2023-03-14T07:01:27.675Z,48.61
2023-03-14T07:02:42.294Z,48.47
2023-03-14T07:03:36.625Z,48.41
2023-03-14T07:04:40.567Z,48.41
2023-03-14T07:05:43.459Z,48.68
2023-03-14T07:06:46.461Z,48.63
2023-03-14T07:07:48.672Z,48.54
2023-03-14T07:08:52.888Z,48.61
2023-03-14T07:09:55.764Z,48.60
2023-03-14T07:10:58.328Z,48.56
2023-03-14T07:12:01.417Z,48.56
2023-03-14T07:13:04.652Z,48.54
2023-03-14T07:14:08.783Z,48.43
2023-03-14T07:15:20.902Z,48.37
2023-03-14T07:16:16.856Z,48.49
2023-03-14T07:17:19.147Z,48.38
2023-03-14T07:18:22.523Z,48.29
2023-03-14T07:19:26.197Z,48.56
2023-03-14T07:20:29.443Z,48.46
2023-03-14T07:21:32.777Z,48.38
2023-03-14T07:22:35.254Z,48.42
2023-03-14T07:23:37.383Z,48.31
2023-03-14T07:24:40.608Z,48.31
2023-03-14T07:25:44.010Z,48.17
2023-03-14T07:26:46.738Z,48.26
2023-03-14T07:27:48.958Z,48.22
2023-03-14T07:28:51.588Z,48.19
2023-03-14T07:29:55.890Z,48.34
2023-03-14T07:30:59.055Z,48.27
2023-03-14T07:32:03.211Z,48.19
2023-03-14T07:33:06.797Z,48.31
2023-03-14T07:34:09.027Z,48.25
2023-03-14T07:35:13.974Z,48.16
2023-03-14T07:36:18.388Z,48.16
2023-03-14T07:37:21.213Z,48.27
2023-03-14T07:38:23.411Z,48.25
2023-03-14T07:40:38.466Z,48.22
2023-03-14T07:41:43.658Z,48.34
2023-03-14T07:43:00.938Z,48.26
2023-03-14T07:44:04.944Z,48.22
2023-03-14T07:45:08.823Z,48.16
2023-03-14T07:46:10.911Z,48.19
2023-03-14T07:47:14.357Z,48.16
2023-03-14T07:48:16.701Z,48.11
2023-03-14T07:49:18.877Z,48.11
2023-03-14T07:50:21.934Z,48.11
2023-03-14T07:51:24.553Z,48.23
2023-03-14T07:52:26.831Z,48.21
2023-03-14T07:53:28.894Z,48.21
2023-03-14T07:54:31.061Z,48.07
2023-03-14T07:55:33.657Z,48.33
2023-03-14T07:56:37.237Z,48.12
2023-03-14T07:57:39.465Z,47.97
2023-03-14T07:58:41.404Z,48.23
2023-03-14T07:59:43.526Z,48.33
2023-03-14T08:00:46.037Z,48.08
2023-03-14T08:01:48.925Z,48.23
2023-03-14T08:02:55.357Z,48.19
2023-03-14T08:04:00.942Z,46.25
2023-03-14T08:05:04.636Z,45.69
2023-03-14T08:06:08.556Z,45.55
2023-03-14T08:07:14.146Z,45.33
2023-03-14T08:08:16.893Z,45.16
2023-03-14T08:09:22.950Z,45.20
2023-03-14T08:10:27.726Z,45.27
2023-03-14T08:11:33.907Z,45.10
2023-03-14T08:12:36.377Z,45.03
2023-03-14T08:13:44.064Z,44.85
2023-03-14T08:14:51.260Z,44.61
2023-03-14T08:15:55.378Z,44.67
2023-03-14T08:17:00.123Z,44.46
2023-03-14T08:18:05.681Z,44.51
2023-03-14T08:19:08.299Z,44.38
2023-03-14T08:20:11.502Z,44.15
2023-03-14T08:21:16.535Z,43.99
2023-03-14T08:22:20.470Z,44.11
2023-03-14T08:23:23.265Z,44.27
2023-03-14T08:24:27.881Z,44.19
2023-03-14T08:25:30.239Z,44.16
2023-03-14T08:26:36.724Z,44.30
2023-03-14T08:27:43.356Z,44.27
2023-03-14T08:28:49.865Z,44.09
2023-03-14T08:29:53.242Z,43.95
2023-03-14T08:30:58.808Z,44.10
2023-03-14T08:32:06.700Z,44.02
2023-03-14T08:33:11.910Z,44.10
2023-03-14T08:34:26.559Z,43.96
2023-03-14T08:35:34.438Z,43.90
2023-03-14T08:36:40.478Z,43.92
2023-03-14T08:37:48.701Z,43.92
2023-03-14T08:38:52.715Z,43.83
2023-03-14T08:39:56.943Z,43.92
2023-03-14T08:41:02.784Z,43.87
2023-03-14T08:42:14.175Z,43.67
2023-03-14T08:43:22.985Z,43.42
2023-03-14T08:44:28.266Z,43.64
2023-03-14T08:45:31.476Z,43.60
2023-03-14T08:46:34.550Z,43.56
2023-03-14T08:47:37.993Z,43.60
2023-03-14T08:48:44.771Z,43.60
2023-03-14T08:49:46.942Z,43.68
2023-03-14T08:50:49.556Z,43.92
2023-03-14T08:51:52.664Z,43.96
2023-03-14T08:52:56.499Z,42.80
2023-03-14T08:54:44.714Z,44.10
2023-03-14T08:55:47.794Z,44.43
2023-03-14T08:56:51.072Z,44.50
2023-03-14T08:57:54.534Z,44.36
2023-03-14T08:58:57.399Z,44.29
2023-03-14T09:00:02.345Z,44.22
2023-03-14T09:01:16.418Z,43.99
2023-03-14T09:02:23.007Z,44.11
2023-03-14T09:03:27.013Z,44.05
2023-03-14T09:04:30.997Z,43.93
2023-03-14T09:05:39.745Z,43.76
2023-03-14T09:06:47.802Z,43.80
2023-03-14T09:07:52.290Z,43.80
2023-03-14T09:09:03.565Z,43.79
2023-03-14T09:10:14.400Z,43.61
2023-03-14T09:11:16.605Z,43.62
2023-03-14T09:12:18.690Z,43.76
2023-03-14T09:13:23.123Z,43.67
2023-03-14T09:14:28.429Z,43.62
2023-03-14T09:15:36.526Z,43.58
2023-03-14T09:16:42.479Z,43.58
2023-03-14T09:17:51.740Z,43.58
2023-03-14T09:18:55.145Z,43.51
2023-03-14T09:20:03.759Z,43.51
2023-03-14T09:21:09.790Z,43.46
2023-03-14T09:22:16.374Z,43.37
2023-03-14T09:23:22.654Z,43.34
2023-03-14T09:24:25.279Z,43.46
2023-03-14T09:25:30.896Z,43.18
2023-03-14T09:26:35.000Z,43.28
2023-03-14T09:27:38.492Z,43.29
2023-03-14T09:28:41.798Z,43.14
2023-03-14T09:29:44.901Z,43.22
2023-03-14T09:30:52.581Z,43.25
2023-03-14T09:33:07.494Z,43.35
2023-03-14T09:34:10.193Z,43.23
2023-03-14T09:35:12.612Z,43.23
2023-03-14T09:36:16.610Z,43.11
2023-03-14T09:37:21.642Z,43.11
2023-03-14T09:38:30.027Z,43.19
2023-03-14T09:39:33.146Z,42.97
2023-03-14T09:40:37.554Z,43.05
2023-03-14T09:41:44.629Z,43.00
2023-03-14T09:42:49.365Z,43.04
2023-03-14T09:43:55.316Z,43.00
2023-03-14T09:45:04.426Z,43.05
2023-03-14T09:46:10.000Z,43.14
2023-03-14T09:47:15.309Z,43.22
2023-03-14T09:48:27.961Z,43.15
2023-03-14T09:49:45.135Z,43.08
2023-03-14T09:52:16.586Z,43.37
2023-03-14T09:55:54.598Z,43.80
2023-03-14T09:56:57.101Z,43.57
2023-03-14T10:00:43.279Z,32.63
2023-03-14T10:01:47.397Z,31.29
2023-03-14T10:02:58.230Z,31.92
2023-03-14T10:05:17.430Z,33.34
2023-03-14T10:06:20.811Z,34.15
2023-03-14T10:07:32.954Z,34.93
2023-03-14T10:08:42.256Z,35.60
2023-03-14T10:09:48.777Z,36.44
2023-03-14T10:10:51.451Z,36.84
2023-03-14T10:11:58.453Z,37.35
2023-03-14T10:13:24.987Z,37.71
2023-03-14T10:14:36.489Z,38.10
2023-03-14T10:15:40.230Z,38.54
2023-03-14T10:16:45.227Z,38.83
2023-03-14T10:17:53.618Z,39.14
2023-03-14T10:19:05.019Z,39.26
2023-03-14T10:21:40.842Z,40.00
2023-03-14T10:22:44.104Z,40.27
2023-03-14T10:23:50.139Z,40.25
2023-03-14T10:24:58.294Z,40.36
2023-03-14T10:26:21.328Z,40.19
2023-03-14T10:27:30.657Z,40.35
2023-03-14T10:28:47.942Z,40.36
2023-03-14T10:29:59.679Z,40.57
2023-03-14T10:31:05.083Z,40.90
2023-03-14T10:32:10.912Z,40.77
2023-03-14T10:33:30.420Z,40.91
2023-03-14T10:34:39.612Z,41.04
2023-03-14T10:35:41.969Z,40.96
2023-03-14T10:36:46.517Z,41.13
2023-03-14T10:37:58.078Z,41.49
2023-03-14T10:40:44.301Z,41.51
2023-03-14T10:42:19.941Z,41.67
2023-03-14T10:44:58.932Z,41.81
2023-03-14T10:46:14.365Z,42.05
2023-03-14T10:47:24.130Z,42.02
2023-03-14T10:48:45.242Z,42.04
2023-03-14T10:49:49.799Z,42.09
2023-03-14T10:51:02.064Z,42.13
2023-03-14T10:52:17.003Z,42.08
2023-03-14T10:53:27.456Z,41.89
2023-03-14T10:54:35.958Z,41.62
2023-03-14T10:55:46.067Z,41.50
2023-03-14T10:58:36.609Z,41.66
2023-03-14T10:59:46.945Z,41.49
2023-03-14T11:01:05.014Z,41.54
2023-03-14T11:04:06.430Z,41.75
2023-03-14T11:06:38.896Z,41.54
2023-03-14T11:09:09.443Z,41.83
2023-03-14T11:10:33.721Z,42.04
2023-03-14T11:11:44.972Z,42.04
2023-03-14T11:14:40.984Z,42.02
2023-03-14T11:16:19.003Z,41.87
2023-03-14T11:17:42.526Z,41.53
2023-03-14T11:19:17.619Z,41.61
2023-03-14T11:20:33.534Z,41.16
2023-03-14T11:23:28.978Z,41.05
2023-03-14T11:24:52.161Z,40.81
2023-03-14T11:27:20.882Z,40.82
2023-03-14T11:28:42.635Z,40.82
2023-03-14T11:30:05.542Z,41.16
2023-03-14T11:31:28.817Z,41.43
2023-03-14T11:32:46.148Z,41.23
2023-03-14T11:35:22.148Z,41.46
2023-03-14T11:36:28.062Z,41.26
2023-03-14T11:37:47.262Z,40.78
2023-03-14T11:38:59.638Z,40.65
2023-03-14T11:40:17.978Z,40.41
2023-03-14T11:41:34.345Z,40.15
2023-03-14T11:42:45.097Z,40.33
2023-03-14T11:43:56.664Z,40.56
2023-03-14T11:45:00.788Z,40.21
2023-03-14T11:47:30.367Z,39.98
2023-03-14T11:50:16.627Z,40.48
2023-03-14T11:51:30.299Z,40.52
2023-03-14T11:52:46.203Z,41.07
2023-03-14T11:53:55.129Z,41.48
2023-03-14T11:56:16.735Z,40.93
2023-03-14T11:57:21.670Z,40.08
2023-03-14T11:58:26.893Z,40.73
2023-03-14T12:01:05.781Z,40.13
2023-03-14T12:02:33.178Z,44.46
2023-03-14T12:03:47.941Z,43.46
2023-03-14T12:05:00.522Z,42.61
2023-03-14T12:06:22.054Z,41.88
2023-03-14T12:09:30.631Z,39.89
2023-03-14T12:12:52.583Z,40.34
2023-03-14T12:13:54.719Z,40.34
2023-03-14T12:15:05.254Z,40.82
2023-03-14T12:17:41.500Z,40.31
2023-03-14T12:18:43.822Z,39.44
2023-03-14T12:19:46.316Z,39.90
2023-03-14T12:22:27.200Z,39.74
2023-03-14T12:23:50.022Z,40.03
2023-03-14T12:26:16.011Z,41.29
2023-03-14T12:27:47.875Z,40.24
2023-03-14T12:28:59.343Z,39.20
2023-03-14T12:30:03.884Z,39.68
2023-03-14T12:31:32.759Z,38.85
2023-03-14T12:32:35.525Z,38.49
2023-03-14T12:33:37.839Z,38.30
2023-03-14T12:34:43.301Z,38.27
2023-03-14T12:35:49.585Z,38.06
2023-03-14T12:37:16.775Z,37.78
2023-03-14T12:38:25.565Z,37.41
2023-03-14T12:39:40.451Z,36.51
2023-03-14T12:42:06.039Z,35.64
2023-03-14T12:44:50.218Z,35.22
2023-03-14T12:47:42.362Z,34.90
2023-03-14T12:48:46.960Z,34.32
2023-03-14T12:49:53.784Z,33.97
2023-03-14T12:51:25.011Z,33.59
2023-03-14T12:52:41.615Z,33.45
2023-03-14T12:54:04.236Z,33.56
2023-03-14T12:57:11.446Z,33.33
2023-03-14T13:00:00.959Z,33.51
2023-03-14T13:01:06.418Z,33.56
2023-03-14T13:02:12.932Z,33.66
2023-03-14T13:03:24.600Z,33.69
2023-03-14T13:04:39.024Z,33.59
2023-03-14T13:05:35.610Z,33.51
2023-03-14T13:07:00.996Z,33.62
2023-03-14T13:08:08.053Z,34.45
2023-03-14T13:09:35.256Z,34.21
2023-03-14T13:10:46.544Z,34.15
2023-03-14T13:11:56.466Z,33.76
2023-03-14T13:13:17.488Z,33.60
2023-03-14T13:14:23.527Z,33.52
2023-03-14T13:17:19.360Z,33.52
2023-03-14T13:19:50.938Z,36.04
2023-03-14T13:20:56.646Z,36.30
2023-03-14T13:22:07.243Z,36.76
2023-03-14T13:23:30.991Z,35.47
2023-03-14T13:24:36.093Z,36.14
2023-03-14T13:25:38.615Z,35.20
2023-03-14T13:26:44.402Z,35.71
2023-03-14T13:27:47.900Z,35.82
2023-03-14T13:28:50.195Z,35.73
2023-03-14T13:29:52.541Z,35.26
2023-03-14T13:31:02.385Z,35.56
2023-03-14T13:32:23.053Z,35.85
2023-03-14T13:33:25.327Z,35.87
2023-03-14T13:34:30.610Z,36.47
2023-03-14T13:36:56.709Z,36.15
2023-03-14T13:38:11.505Z,34.79
2023-03-14T13:39:14.785Z,34.79
2023-03-14T13:40:23.819Z,34.43
2023-03-14T13:41:27.364Z,34.84
2023-03-14T13:42:31.059Z,35.04
2023-03-14T13:43:39.306Z,34.96
2023-03-14T13:44:42.433Z,34.40
2023-03-14T13:46:00.241Z,34.71
2023-03-14T13:47:04.926Z,33.85
2023-03-14T13:48:10.298Z,34.11
2023-03-14T13:50:45.943Z,33.35
2023-03-14T13:51:48.335Z,33.56
2023-03-14T13:52:57.379Z,33.97
2023-03-14T13:55:23.063Z,34.13
2023-03-14T13:59:51.810Z,35.44
2023-03-14T14:01:03.543Z,33.25
2023-03-14T14:02:09.686Z,33.25
2023-03-14T14:03:12.024Z,31.82
2023-03-14T14:04:17.192Z,31.98
2023-03-14T14:05:19.575Z,32.67
2023-03-14T14:06:27.482Z,33.01
2023-03-14T14:07:30.433Z,32.89
2023-03-14T14:08:37.357Z,33.00
2023-03-14T14:09:45.304Z,32.97
2023-03-14T14:10:48.151Z,32.76
2023-03-14T14:12:11.425Z,32.65
2023-03-14T14:13:01.289Z,32.64
2023-03-14T14:14:06.391Z,32.65
2023-03-14T14:15:11.913Z,32.61
2023-03-14T14:16:17.483Z,33.30
2023-03-14T14:17:23.315Z,32.82
2023-03-14T14:18:27.373Z,32.63
2023-03-14T14:19:31.275Z,32.57
2023-03-14T14:20:36.957Z,32.47
2023-03-14T14:21:40.061Z,32.56
2023-03-14T14:22:42.792Z,32.86
2023-03-14T14:23:47.439Z,32.92
2023-03-14T14:24:49.974Z,32.82
2023-03-14T14:25:54.832Z,33.01
2023-03-14T14:27:27.521Z,33.12
2023-03-14T14:28:35.324Z,33.38
2023-03-14T14:29:38.245Z,33.37
2023-03-14T14:30:41.782Z,33.88
2023-03-14T14:31:45.301Z,33.51
2023-03-14T14:32:51.071Z,33.69
2023-03-14T14:34:01.679Z,33.63
2023-03-14T14:36:32.013Z,33.95
2023-03-14T14:37:36.594Z,33.65
2023-03-14T14:38:39.864Z,33.55
2023-03-14T14:39:42.287Z,33.58
2023-03-14T14:40:50.278Z,33.73
2023-03-14T14:41:53.914Z,33.85
2023-03-14T14:43:05.795Z,33.92
2023-03-14T14:44:17.966Z,34.07
2023-03-14T14:45:24.351Z,33.76
2023-03-14T14:46:29.460Z,33.83
2023-03-14T14:47:36.657Z,33.74
2023-03-14T14:48:39.618Z,33.67
2023-03-14T14:49:42.669Z,33.28
2023-03-14T14:50:58.879Z,33.67
2023-03-14T14:52:07.614Z,33.51
2023-03-14T14:53:29.976Z,33.75
2023-03-14T14:56:11.281Z,33.58
2023-03-14T14:57:21.212Z,33.54
2023-03-14T14:58:35.745Z,33.76
2023-03-14T14:59:43.467Z,33.85
2023-03-14T15:00:58.765Z,33.72
2023-03-14T15:02:04.807Z,33.62
2023-03-14T15:03:11.126Z,33.76
2023-03-14T15:05:35.382Z,32.78
2023-03-14T15:06:39.722Z,32.47
2023-03-14T15:07:42.954Z,32.60
2023-03-14T15:08:49.300Z,32.74
2023-03-14T15:09:51.835Z,32.64
2023-03-14T15:10:56.803Z,32.30
2023-03-14T15:12:01.963Z,32.57
2023-03-14T15:13:06.334Z,32.60
2023-03-14T15:14:09.807Z,32.93
2023-03-14T15:15:12.859Z,32.67
2023-03-14T15:16:19.908Z,32.66
2023-03-14T15:17:23.196Z,32.89
2023-03-14T15:18:30.868Z,32.85
2023-03-14T15:19:35.050Z,32.57
2023-03-14T15:20:38.159Z,32.69
2023-03-14T15:21:40.983Z,32.62
2023-03-14T15:22:43.349Z,32.85
2023-03-14T15:23:46.305Z,32.66
2023-03-14T15:24:48.813Z,32.76
2023-03-14T15:25:55.861Z,32.61
2023-03-14T15:26:56.307Z,32.73
2023-03-14T15:27:59.923Z,32.77
2023-03-14T15:29:03.317Z,33.05
2023-03-14T15:30:09.062Z,33.10
2023-03-14T15:31:12.577Z,33.00
2023-03-14T15:32:18.498Z,33.39
2023-03-14T15:33:26.594Z,33.62
2023-03-14T15:34:29.539Z,33.57
2023-03-14T15:35:37.436Z,33.58
2023-03-14T15:36:43.062Z,33.63
2023-03-14T15:37:46.247Z,34.06
2023-03-14T15:38:51.337Z,33.92
2023-03-14T15:39:56.436Z,34.05
2023-03-14T15:41:00.806Z,34.01
2023-03-14T15:42:05.932Z,33.91
2023-03-14T15:43:10.261Z,34.18
2023-03-14T15:44:13.568Z,34.03
2023-03-14T15:46:31.193Z,34.41
2023-03-14T15:47:39.859Z,34.55
2023-03-14T15:48:42.219Z,34.53
2023-03-14T15:49:44.570Z,34.48
2023-03-14T15:50:49.089Z,34.51